createdAt,value
2019-04-16T00:01:47.271Z,3.40
2019-04-16T00:04:37.250Z,3.30
2019-04-16T00:07:24.312Z,3.20
2019-04-16T00:10:18.781Z,3.10
2019-04-16T00:12:58.563Z,3.10
2019-04-16T00:15:27.848Z,3.10
2019-04-16T00:17:57.086Z,3.00
2019-04-16T00:20:26.446Z,3.00
2019-04-16T00:23:04.654Z,2.90
2019-04-16T00:25:33.928Z,2.90
2019-04-16T00:28:03.196Z,2.90
2019-04-16T00:30:35.509Z,2.80
2019-04-16T00:33:03.519Z,2.80
2019-04-16T00:35:32.789Z,2.80
2019-04-16T00:38:02.119Z,2.70
2019-04-16T00:40:31.399Z,2.70
2019-04-16T00:43:00.747Z,2.60
2019-04-16T00:45:30.025Z,2.60
2019-04-16T00:47:59.380Z,2.60
2019-04-16T00:50:28.740Z,2.50
2019-04-16T00:52:57.931Z,2.50
2019-04-16T00:55:27.301Z,2.50
2019-04-16T00:57:56.571Z,2.50
2019-04-16T01:00:27.737Z,2.50
2019-04-16T01:02:56.874Z,2.50
2019-04-16T01:05:26.287Z,2.40
2019-04-16T01:07:55.711Z,2.40
2019-04-16T01:10:25.366Z,2.30
2019-04-16T01:12:54.827Z,2.20
2019-04-16T01:15:24.159Z,2.20
2019-04-16T01:17:53.697Z,2.10
2019-04-16T01:20:23.068Z,2.10
2019-04-16T01:22:52.455Z,2.00
2019-04-16T01:25:23.346Z,2.00
2019-04-16T01:28:00.782Z,2.00
2019-04-16T01:30:53.283Z,1.90
2019-04-16T01:33:32.676Z,1.80
2019-04-16T01:36:17.321Z,1.80
2019-04-16T01:38:52.347Z,1.80
2019-04-16T01:41:22.602Z,1.70
2019-04-16T01:43:54.294Z,1.70
2019-04-16T01:46:27.351Z,1.70
2019-04-16T01:48:56.656Z,1.70
2019-04-16T01:51:26.054Z,1.70
2019-04-16T01:53:55.356Z,1.60
2019-04-16T01:56:27.970Z,1.60
2019-04-16T01:58:55.676Z,1.60
2019-04-16T02:01:25.141Z,1.60
2019-04-16T02:03:54.578Z,1.50
2019-04-16T02:06:26.942Z,1.50
2019-04-16T02:09:01.452Z,1.40
2019-04-16T02:11:27.709Z,1.40
2019-04-16T02:13:56.989Z,1.40
2019-04-16T02:16:26.454Z,1.30
2019-04-16T02:19:00.809Z,1.30
2019-04-16T02:21:28.660Z,1.30
2019-04-16T02:23:58.125Z,1.30
2019-04-16T02:26:27.484Z,1.20
2019-04-16T02:28:58.948Z,1.20
2019-04-16T02:31:29.413Z,1.20
2019-04-16T02:33:58.664Z,1.10
2019-04-16T02:36:27.957Z,1.10
2019-04-16T02:38:57.428Z,1.10
2019-04-16T02:41:26.773Z,1.10
2019-04-16T02:43:56.129Z,1.10
2019-04-16T02:46:30.542Z,1.10
2019-04-16T02:48:56.516Z,1.10
2019-04-16T02:51:32.072Z,1.00
2019-04-16T02:54:15.915Z,1.00
2019-04-16T02:57:02.853Z,0.90
2019-04-16T02:59:35.510Z,0.90
2019-04-16T03:02:23.703Z,0.80
2019-04-16T03:05:04.976Z,0.80
2019-04-16T03:07:34.265Z,0.80
2019-04-16T03:10:03.911Z,0.80
2019-04-16T03:12:33.616Z,0.70
2019-04-16T03:15:03.129Z,0.70
2019-04-16T03:17:39.633Z,0.70
2019-04-16T03:20:10.720Z,0.70
2019-04-16T03:22:40.013Z,0.60
2019-04-16T03:25:13.825Z,0.60
2019-04-16T03:27:41.188Z,0.60
2019-04-16T03:30:10.653Z,0.60
2019-04-16T03:32:52.284Z,0.50
2019-04-16T03:35:26.405Z,0.50
2019-04-16T03:37:53.773Z,0.50
2019-04-16T03:40:26.532Z,0.50
2019-04-16T03:42:59.047Z,0.50
2019-04-16T03:45:26.891Z,0.40
2019-04-16T03:47:56.494Z,0.40
2019-04-16T03:50:31.045Z,0.40
2019-04-16T03:52:56.847Z,0.30
2019-04-16T03:55:26.528Z,0.30
2019-04-16T03:57:55.958Z,0.20
2019-04-16T04:00:25.475Z,0.20
2019-04-16T04:02:55.440Z,0.20
2019-04-16T04:05:27.314Z,0.20
2019-04-16T04:07:56.671Z,0.10
2019-04-16T04:10:30.677Z,0.10
2019-04-16T04:12:58.037Z,0.10
2019-04-16T04:15:27.392Z,0.10
2019-04-16T04:17:56.855Z,0.10
2019-04-16T04:20:27.187Z,0.10
2019-04-16T04:22:57.027Z,0.00
2019-04-16T04:25:27.211Z,0.00
2019-04-16T04:27:56.605Z,0.00
2019-04-16T04:30:29.641Z,0.00
2019-04-16T04:32:59.092Z,0.00
2019-04-16T04:35:28.447Z,0.00
2019-04-16T04:38:00.846Z,0.00
2019-04-16T04:40:43.455Z,0.00
2019-04-16T04:43:00.953Z,0.00
2019-04-16T04:45:31.107Z,0.00
2019-04-16T04:48:00.698Z,0.00
2019-04-16T04:50:32.430Z,0.00
2019-04-16T04:53:01.168Z,0.00
2019-04-16T04:55:30.605Z,0.00
2019-04-16T04:58:02.678Z,0.20
2019-04-16T05:00:32.678Z,0.20
2019-04-16T05:03:07.991Z,0.20
2019-04-16T05:05:41.991Z,0.20
2019-04-16T05:08:11.415Z,0.30
2019-04-16T05:10:43.401Z,0.40
2019-04-16T05:13:11.837Z,0.50
2019-04-16T05:15:41.215Z,0.70
2019-04-16T05:18:13.309Z,0.90
2019-04-16T05:20:46.782Z,1.20
2019-04-16T05:23:13.670Z,1.40
2019-04-16T05:25:43.138Z,1.60
2019-04-16T05:28:14.240Z,1.80
2019-04-16T05:30:45.150Z,2.00
2019-04-16T05:33:14.478Z,2.20
2019-04-16T05:35:43.862Z,2.40
2019-04-16T05:38:13.148Z,2.60
2019-04-16T05:40:42.639Z,2.90
2019-04-16T05:43:12.018Z,3.10
2019-04-16T05:45:41.542Z,3.30
2019-04-16T05:48:11.177Z,3.60
2019-04-16T05:50:40.785Z,3.80
2019-04-16T05:53:12.799Z,4.10
2019-04-16T05:55:57.404Z,4.40
2019-04-16T05:58:27.766Z,4.70
2019-04-16T06:01:05.249Z,5.00
2019-04-16T06:03:34.552Z,5.30
2019-04-16T06:06:03.864Z,5.60
2019-04-16T06:08:33.138Z,5.90
2019-04-16T06:11:02.557Z,6.20
2019-04-16T06:13:46.361Z,6.50
2019-04-16T06:16:50.002Z,6.70
2019-04-16T06:19:32.777Z,7.00
2019-04-16T06:22:12.423Z,7.40
2019-04-16T06:25:08.284Z,7.60
2019-04-16T06:27:53.607Z,7.90
2019-04-16T06:30:51.277Z,8.40
2019-04-16T06:33:25.469Z,9.10
2019-04-16T06:36:16.605Z,9.60
2019-04-16T06:39:04.918Z,10.00
2019-04-16T06:41:52.728Z,10.50
2019-04-16T06:44:23.849Z,10.80
2019-04-16T06:47:21.303Z,11.40
2019-04-16T06:50:04.522Z,11.60
2019-04-16T06:52:58.955Z,11.60
2019-04-16T06:55:36.741Z,12.10
2019-04-16T06:58:27.706Z,11.80
2019-04-16T07:01:13.139Z,11.80
2019-04-16T07:04:00.414Z,11.90
2019-04-16T07:07:07.853Z,12.30
2019-04-16T07:09:42.307Z,12.00
2019-04-16T07:12:15.622Z,11.70
2019-04-16T07:14:45.535Z,12.10
2019-04-16T07:17:18.338Z,12.30
2019-04-16T07:19:47.250Z,12.30
2019-04-16T07:22:20.819Z,12.10
2019-04-16T07:24:50.718Z,11.90
2019-04-16T07:27:21.266Z,11.40
2019-04-16T07:29:54.633Z,11.40
2019-04-16T07:32:41.849Z,11.40
2019-04-16T07:35:45.639Z,11.70
2019-04-16T07:38:20.377Z,12.00
2019-04-16T07:41:12.404Z,11.80
2019-04-16T07:44:04.494Z,11.80
2019-04-16T07:46:58.549Z,12.10
2019-04-16T07:49:46.002Z,12.10
2019-04-16T07:52:42.006Z,12.10
2019-04-16T07:55:36.554Z,12.20
2019-04-16T07:58:06.021Z,12.40
2019-04-16T08:00:40.284Z,12.30
2019-04-16T08:03:06.587Z,12.60
2019-04-16T08:05:37.754Z,13.00
2019-04-16T08:08:07.140Z,13.10
2019-04-16T08:10:36.543Z,12.70
2019-04-16T08:13:10.365Z,12.80
2019-04-16T08:15:39.939Z,13.10
2019-04-16T08:18:09.343Z,12.90
2019-04-16T08:20:38.563Z,13.40
2019-04-16T08:23:25.728Z,13.70
2019-04-16T08:26:02.759Z,13.80
2019-04-16T08:28:27.540Z,13.60
2019-04-16T08:30:56.995Z,13.80
2019-04-16T08:33:28.522Z,13.70
2019-04-16T08:35:57.280Z,13.90
2019-04-16T08:38:26.711Z,14.00
2019-04-16T08:40:56.123Z,14.50
2019-04-16T08:43:26.667Z,14.40
2019-04-16T08:45:56.608Z,14.50
2019-04-16T08:48:25.980Z,14.80
2019-04-16T08:50:57.933Z,14.80
2019-04-16T08:53:26.400Z,15.30
2019-04-16T08:55:55.747Z,15.10
2019-04-16T08:58:25.165Z,15.00
2019-04-16T09:00:54.503Z,15.40
2019-04-16T09:03:26.798Z,15.70
2019-04-16T09:05:54.997Z,15.70
2019-04-16T09:08:30.302Z,15.90
2019-04-16T09:11:00.249Z,15.30
2019-04-16T09:13:34.745Z,15.20
2019-04-16T09:16:05.028Z,15.20
2019-04-16T09:18:58.516Z,15.40
2019-04-16T09:21:28.236Z,15.30
2019-04-16T09:24:15.307Z,15.70
2019-04-16T09:26:55.684Z,16.20
2019-04-16T09:29:39.114Z,16.50
2019-04-16T09:32:24.551Z,16.30
2019-04-16T09:35:09.700Z,16.20
2019-04-16T09:37:54.421Z,16.30
2019-04-16T09:40:57.861Z,16.60
2019-04-16T09:43:27.817Z,16.50
2019-04-16T09:46:09.710Z,16.70
2019-04-16T09:48:28.200Z,16.80
2019-04-16T09:50:57.563Z,16.50
2019-04-16T09:53:33.995Z,16.70
2019-04-16T09:56:00.112Z,17.10
2019-04-16T09:58:29.431Z,16.80
2019-04-16T10:01:03.191Z,16.70
2019-04-16T10:03:35.937Z,16.80
2019-04-16T10:06:05.934Z,16.80
2019-04-16T10:08:35.499Z,17.10
2019-04-16T10:11:06.250Z,16.90
2019-04-16T10:13:36.483Z,17.40
2019-04-16T10:16:06.070Z,17.30
2019-04-16T10:18:36.055Z,17.50
2019-04-16T10:21:05.607Z,17.40
2019-04-16T10:23:47.827Z,17.10
2019-04-16T10:26:17.582Z,17.80
2019-04-16T10:28:48.170Z,17.70
2019-04-16T10:31:19.473Z,17.70
2019-04-16T10:33:48.849Z,18.00
2019-04-16T10:36:18.228Z,17.70
2019-04-16T10:39:05.197Z,17.80
2019-04-16T10:41:56.284Z,18.00
2019-04-16T10:44:49.771Z,18.40
2019-04-16T10:47:56.483Z,18.40
2019-04-16T10:50:41.943Z,18.60
2019-04-16T10:53:45.338Z,18.50
2019-04-16T10:56:40.342Z,18.70
2019-04-16T10:59:28.668Z,18.70
2019-04-16T11:02:17.016Z,18.80
2019-04-16T11:05:08.451Z,18.60
2019-04-16T11:07:37.831Z,19.00
2019-04-16T11:10:07.563Z,19.00
2019-04-16T11:12:36.928Z,18.50
2019-04-16T11:15:06.820Z,19.10
2019-04-16T11:17:36.347Z,19.20
2019-04-16T11:20:06.381Z,19.40
2019-04-16T11:22:35.767Z,19.10
2019-04-16T11:25:05.258Z,18.80
2019-04-16T11:27:35.788Z,19.50
2019-04-16T11:30:07.334Z,19.30
2019-04-16T11:32:39.322Z,19.30
2019-04-16T11:35:07.774Z,19.10
2019-04-16T11:37:41.201Z,19.10
2019-04-16T11:40:10.587Z,19.00
2019-04-16T11:42:40.025Z,19.30
2019-04-16T11:45:12.267Z,19.30
2019-04-16T11:47:41.931Z,18.90
2019-04-16T11:50:11.396Z,19.20
2019-04-16T11:52:40.933Z,19.40
2019-04-16T11:55:10.348Z,19.70
2019-04-16T11:57:39.754Z,20.00
2019-04-16T12:00:12.287Z,19.90
2019-04-16T12:02:57.814Z,20.30
2019-04-16T12:05:33.450Z,20.00
2019-04-16T12:08:21.776Z,20.30
2019-04-16T12:11:02.459Z,20.10
2019-04-16T12:13:46.687Z,20.20
2019-04-16T12:16:35.210Z,20.10
2019-04-16T12:19:23.841Z,19.80
2019-04-16T12:22:07.516Z,20.00
2019-04-16T12:25:04.763Z,20.20
2019-04-16T12:28:11.599Z,20.00
2019-04-16T12:30:50.053Z,19.50
2019-04-16T12:33:32.797Z,20.40
2019-04-16T12:36:36.482Z,20.90
2019-04-16T12:39:36.013Z,20.90
2019-04-16T12:42:14.493Z,20.90
2019-04-16T12:45:03.034Z,21.00
2019-04-16T12:47:39.077Z,20.90
2019-04-16T12:50:27.710Z,20.80
2019-04-16T12:53:18.993Z,20.80
2019-04-16T12:56:08.425Z,20.40
2019-04-16T12:58:41.947Z,20.50
2019-04-16T13:01:19.849Z,21.00
2019-04-16T13:04:20.360Z,21.40
2019-04-16T13:07:06.270Z,21.50
2019-04-16T13:09:54.046Z,21.20
2019-04-16T13:12:28.326Z,21.00
2019-04-16T13:15:13.641Z,21.10
2019-04-16T13:18:05.047Z,20.80
2019-04-16T13:20:52.003Z,20.90
2019-04-16T13:23:39.205Z,20.70
2019-04-16T13:26:42.755Z,20.70
2019-04-16T13:29:17.290Z,20.90
2019-04-16T13:31:46.818Z,20.60
2019-04-16T13:34:18.664Z,20.20
2019-04-16T13:36:47.181Z,20.20
2019-04-16T13:39:41.746Z,20.50
2019-04-16T13:42:11.120Z,20.50
2019-04-16T13:44:44.105Z,20.90
2019-04-16T13:47:13.491Z,20.90
2019-04-16T13:50:05.010Z,21.00
2019-04-16T13:52:34.886Z,20.70
2019-04-16T13:55:26.133Z,21.10
2019-04-16T13:58:05.941Z,21.90
2019-04-16T14:00:42.757Z,21.60
2019-04-16T14:03:14.650Z,21.40
2019-04-16T14:05:44.043Z,22.20
2019-04-16T14:08:13.393Z,22.60
2019-04-16T14:10:43.306Z,22.50
2019-04-16T14:13:14.107Z,22.20
2019-04-16T14:15:44.868Z,22.20
2019-04-16T14:18:14.370Z,22.50
2019-04-16T14:20:43.859Z,22.40
2019-04-16T14:23:13.322Z,22.40
2019-04-16T14:25:42.745Z,22.40
2019-04-16T14:28:12.437Z,22.70
2019-04-16T14:30:45.605Z,22.90
2019-04-16T14:33:20.149Z,22.90
2019-04-16T14:35:49.786Z,23.00
2019-04-16T14:38:25.165Z,23.00
2019-04-16T14:40:54.625Z,23.10
2019-04-16T14:43:30.157Z,23.30
2019-04-16T14:46:00.546Z,23.10
2019-04-16T14:48:30.085Z,23.00
2019-04-16T14:50:59.727Z,23.00
2019-04-16T14:53:44.210Z,22.90
2019-04-16T14:56:35.368Z,23.20
2019-04-16T14:59:30.393Z,22.80
2019-04-16T15:02:17.612Z,22.10
2019-04-16T15:05:04.794Z,22.00
2019-04-16T15:07:59.373Z,21.90
2019-04-16T15:10:49.305Z,21.90
2019-04-16T15:13:32.003Z,22.20
2019-04-16T15:16:22.272Z,21.70
2019-04-16T15:19:08.145Z,21.40
2019-04-16T15:21:55.055Z,21.60
2019-04-16T15:24:40.195Z,21.50
2019-04-16T15:27:21.258Z,21.60
2019-04-16T15:30:18.622Z,21.90
2019-04-16T15:33:16.075Z,21.60
2019-04-16T15:35:49.865Z,21.20
2019-04-16T15:38:29.644Z,21.30
2019-04-16T15:41:17.550Z,21.30
2019-04-16T15:44:05.088Z,20.90
2019-04-16T15:47:13.259Z,21.00
2019-04-16T15:49:55.950Z,20.90
2019-04-16T15:52:40.688Z,21.00
2019-04-16T15:55:27.727Z,20.70
2019-04-16T15:58:17.822Z,20.50
2019-04-16T16:01:21.266Z,20.50
2019-04-16T16:04:22.360Z,20.30
2019-04-16T16:06:59.461Z,20.20
2019-04-16T16:09:58.824Z,20.10
2019-04-16T16:12:29.423Z,20.40
2019-04-16T16:14:58.813Z,20.10
2019-04-16T16:17:28.266Z,20.10
2019-04-16T16:19:57.765Z,20.00
2019-04-16T16:22:27.212Z,19.80
2019-04-16T16:24:56.666Z,19.50
2019-04-16T16:27:26.110Z,19.10
2019-04-16T16:29:55.502Z,18.90
2019-04-16T16:32:24.928Z,18.80
2019-04-16T16:34:54.600Z,18.70
2019-04-16T16:37:23.972Z,18.60
2019-04-16T16:39:53.436Z,18.50
2019-04-16T16:42:22.836Z,18.50
2019-04-16T16:44:52.264Z,18.30
2019-04-16T16:47:39.721Z,18.30
2019-04-16T16:50:10.305Z,18.20
2019-04-16T16:53:02.781Z,18.10
2019-04-16T16:55:36.564Z,18.00
2019-04-16T16:58:28.074Z,18.00
2019-04-16T17:01:16.441Z,17.90
2019-04-16T17:03:52.576Z,17.80
2019-04-16T17:06:21.748Z,17.70
2019-04-16T17:08:51.224Z,17.60
2019-04-16T17:11:20.653Z,17.50
2019-04-16T17:13:50.068Z,17.40
2019-04-16T17:16:19.610Z,17.30
2019-04-16T17:18:49.074Z,17.30
2019-04-16T17:21:18.555Z,17.20
2019-04-16T17:23:48.000Z,17.20
2019-04-16T17:26:17.488Z,17.10
2019-04-16T17:28:46.881Z,17.00
2019-04-16T17:31:16.348Z,16.90
2019-04-16T17:33:45.791Z,16.80
2019-04-16T17:36:15.254Z,16.70
2019-04-16T17:38:44.598Z,16.60
2019-04-16T17:41:18.479Z,16.50
2019-04-16T17:44:19.192Z,16.40
2019-04-16T17:47:31.464Z,16.30
2019-04-16T17:50:02.456Z,16.20
2019-04-16T17:52:40.077Z,16.10
2019-04-16T17:55:34.179Z,16.00
2019-04-16T17:58:10.419Z,15.90
2019-04-16T18:00:57.328Z,15.80
2019-04-16T18:03:42.936Z,15.70
2019-04-16T18:06:37.707Z,15.60
2019-04-16T18:09:45.051Z,15.50
2019-04-16T18:12:43.597Z,15.40
2019-04-16T18:15:36.501Z,15.30
2019-04-16T18:18:30.978Z,15.30
2019-04-16T18:21:15.951Z,15.10
2019-04-16T18:23:52.531Z,15.10
2019-04-16T18:26:43.934Z,15.00
2019-04-16T18:29:20.817Z,14.90
2019-04-16T18:32:00.732Z,14.80
2019-04-16T18:34:52.189Z,14.80
2019-04-16T18:37:38.370Z,14.70
2019-04-16T18:40:18.213Z,14.60
2019-04-16T18:43:07.904Z,14.50
2019-04-16T18:46:22.468Z,14.50
2019-04-16T18:48:55.049Z,14.40
2019-04-16T18:51:26.545Z,14.30
2019-04-16T18:53:56.304Z,14.20
2019-04-16T18:56:25.821Z,14.20
2019-04-16T18:58:55.230Z,14.20
2019-04-16T19:01:29.560Z,14.10
2019-04-16T19:03:57.777Z,14.00
2019-04-16T19:06:27.281Z,13.90
2019-04-16T19:08:56.766Z,13.80
2019-04-16T19:11:26.200Z,13.80
2019-04-16T19:13:55.610Z,13.70
2019-04-16T19:16:24.920Z,13.70
2019-04-16T19:18:55.413Z,13.60
2019-04-16T19:21:24.952Z,13.50
2019-04-16T19:23:56.467Z,13.50
2019-04-16T19:26:30.508Z,13.40
2019-04-16T19:28:59.987Z,13.30
2019-04-16T19:31:29.483Z,13.30
2019-04-16T19:34:00.035Z,13.20
2019-04-16T19:36:30.611Z,13.10
2019-04-16T19:39:05.393Z,13.10
2019-04-16T19:41:33.412Z,13.10
2019-04-16T19:44:06.363Z,13.00
2019-04-16T19:46:34.210Z,13.00
2019-04-16T19:49:03.943Z,13.00
2019-04-16T19:51:33.379Z,12.90
2019-04-16T19:54:03.042Z,12.90
2019-04-16T19:56:33.536Z,12.80
2019-04-16T19:59:03.957Z,12.70
2019-04-16T20:01:33.521Z,12.70
2019-04-16T20:04:03.131Z,12.60
2019-04-16T20:06:32.592Z,12.50
2019-04-16T20:09:02.543Z,12.40
2019-04-16T20:11:32.117Z,12.30
2019-04-16T20:14:03.380Z,12.30
2019-04-16T20:16:33.045Z,12.20
2019-04-16T20:19:02.672Z,12.10
2019-04-16T20:21:37.483Z,12.10
2019-04-16T20:24:07.225Z,12.00
2019-04-16T20:26:37.653Z,11.90
2019-04-16T20:29:07.258Z,11.80
2019-04-16T20:31:36.761Z,11.80
2019-04-16T20:34:09.252Z,11.70
2019-04-16T20:36:37.408Z,11.60
2019-04-16T20:39:08.493Z,11.60
2019-04-16T20:41:37.888Z,11.50
2019-04-16T20:44:09.308Z,11.50
2019-04-16T20:46:38.396Z,11.40
2019-04-16T20:49:10.729Z,11.40
2019-04-16T20:51:40.424Z,11.30
2019-04-16T20:54:13.784Z,11.40
2019-04-16T20:56:41.475Z,11.40
2019-04-16T20:59:10.958Z,11.40
2019-04-16T21:01:40.344Z,11.30
2019-04-16T21:04:09.809Z,11.30
2019-04-16T21:06:41.939Z,11.20
2019-04-16T21:09:10.518Z,11.20
2019-04-16T21:11:41.028Z,11.10
2019-04-16T21:14:11.543Z,11.10
2019-04-16T21:16:41.513Z,11.00
2019-04-16T21:19:22.841Z,11.00
2019-04-16T21:21:42.015Z,10.90
2019-04-16T21:24:13.548Z,10.90
2019-04-16T21:26:59.699Z,10.80
2019-04-16T21:29:35.884Z,10.80
2019-04-16T21:32:10.349Z,10.70
2019-04-16T21:34:46.569Z,10.70
2019-04-16T21:37:33.551Z,10.60
2019-04-16T21:40:04.442Z,10.50
2019-04-16T21:42:34.979Z,10.40
2019-04-16T21:45:06.709Z,10.30
2019-04-16T21:47:36.228Z,10.30
2019-04-16T21:50:05.987Z,10.20
2019-04-16T21:52:35.357Z,10.10
2019-04-16T21:55:05.289Z,10.10
2019-04-16T21:57:34.814Z,10.00
2019-04-16T22:00:07.615Z,9.90
2019-04-16T22:02:38.886Z,9.90
2019-04-16T22:05:09.934Z,9.80
2019-04-16T22:07:39.357Z,9.80
2019-04-16T22:10:08.839Z,9.80
2019-04-16T22:12:38.282Z,9.70
2019-04-16T22:15:08.234Z,9.70
2019-04-16T22:17:37.741Z,9.60
2019-04-16T22:20:07.373Z,9.60
2019-04-16T22:22:36.765Z,9.50
2019-04-16T22:25:06.309Z,9.40
2019-04-16T22:27:36.814Z,9.40
2019-04-16T22:30:07.249Z,9.30
2019-04-16T22:32:36.750Z,9.20
2019-04-16T22:35:06.503Z,9.10
2019-04-16T22:37:35.958Z,9.10
2019-04-16T22:40:31.178Z,9.00
2019-04-16T22:43:18.189Z,9.00
2019-04-16T22:45:52.609Z,9.00
2019-04-16T22:48:21.954Z,8.90
2019-04-16T22:50:51.702Z,8.80
2019-04-16T22:53:21.079Z,8.80
2019-04-16T22:55:56.129Z,8.70
2019-04-16T22:58:25.307Z,8.60
2019-04-16T23:00:59.489Z,8.50
2019-04-16T23:03:28.738Z,8.40
2019-04-16T23:06:00.923Z,8.30
2019-04-16T23:08:29.154Z,8.20
2019-04-16T23:10:58.579Z,8.20
2019-04-16T23:13:32.294Z,8.10
2019-04-16T23:15:59.096Z,8.00
2019-04-16T23:18:28.517Z,8.00
2019-04-16T23:20:57.924Z,7.90
2019-04-16T23:23:27.304Z,7.80
2019-04-16T23:25:59.657Z,7.70
2019-04-16T23:28:27.766Z,7.70
2019-04-16T23:30:57.406Z,7.60
2019-04-16T23:33:26.738Z,7.50
2019-04-16T23:35:56.176Z,7.40
2019-04-16T23:38:25.740Z,7.40
2019-04-16T23:40:56.651Z,7.30
2019-04-16T23:43:36.501Z,7.20
2019-04-16T23:46:23.358Z,7.20
2019-04-16T23:49:09.492Z,7.10
2019-04-16T23:51:42.847Z,7.10
2019-04-16T23:54:18.917Z,7.00
2019-04-16T23:56:54.906Z,6.90
2019-04-16T23:59:52.500Z,6.90
